createdAt,value
2017-05-10T00:00:06.783Z,1009.35
2017-05-10T00:00:47.669Z,1009.34
2017-05-10T00:01:28.556Z,1009.32
2017-05-10T00:02:09.465Z,1009.3
2017-05-10T00:02:50.315Z,1009.34
2017-05-10T00:03:31.197Z,1009.31
2017-05-10T00:04:12.091Z,1009.32
2017-05-10T00:04:52.977Z,1009.31
2017-05-10T00:05:33.854Z,1009.29
2017-05-10T00:06:14.733Z,1009.32
2017-05-10T00:06:55.616Z,1009.27
2017-05-10T00:07:36.531Z,1009.27
2017-05-10T00:08:17.413Z,1009.27
2017-05-10T00:08:58.307Z,1009.28
2017-05-10T00:09:39.193Z,1009.23
2017-05-10T00:10:20.455Z,1009.22
2017-05-10T00:11:01.346Z,1009.25
2017-05-10T00:11:42.241Z,1009.22
2017-05-10T00:12:23.145Z,1009.23
2017-05-10T00:13:04.029Z,1009.26
2017-05-10T00:13:44.920Z,1009.26
2017-05-10T00:14:25.803Z,1009.28
2017-05-10T00:15:06.683Z,1009.29
2017-05-10T00:15:47.561Z,1009.25
2017-05-10T00:16:28.450Z,1009.29
2017-05-10T00:17:09.345Z,1009.26
2017-05-10T00:17:50.232Z,1009.25
2017-05-10T00:18:31.106Z,1009.28
2017-05-10T00:19:11.992Z,1009.24
2017-05-10T00:19:52.881Z,1009.22
2017-05-10T00:20:33.764Z,1009.21
2017-05-10T00:21:14.642Z,1009.16
2017-05-10T00:21:55.556Z,1009.18
2017-05-10T00:22:36.414Z,1009.17
2017-05-10T00:23:17.288Z,1009.15
2017-05-10T00:23:58.176Z,1009.17
2017-05-10T00:24:39.065Z,1009.13
2017-05-10T00:25:19.946Z,1009.13
2017-05-10T00:26:00.813Z,1009.12
2017-05-10T00:26:41.696Z,1009.09
2017-05-10T00:27:22.590Z,1009.1
2017-05-10T00:28:03.474Z,1009.1
2017-05-10T00:28:44.355Z,1009.08
2017-05-10T00:29:25.230Z,1009.1
2017-05-10T00:30:06.117Z,1009.06
2017-05-10T00:30:47.004Z,1009.08
2017-05-10T00:31:27.877Z,1009.09
2017-05-10T00:32:08.796Z,1009.05
2017-05-10T00:32:49.673Z,1009.06
2017-05-10T00:33:30.554Z,1009.07
2017-05-10T00:34:11.440Z,1009.04
2017-05-10T00:34:52.349Z,1009.04
2017-05-10T00:35:33.254Z,1009.04
2017-05-10T00:36:14.146Z,1009.04
2017-05-10T00:36:55.030Z,1009.01
2017-05-10T00:37:35.914Z,1009.01
2017-05-10T00:38:16.786Z,1009.05
2017-05-10T00:38:57.696Z,1009.03
2017-05-10T00:39:38.581Z,1009.01
2017-05-10T00:40:19.468Z,1008.99
2017-05-10T00:41:00.346Z,1008.99
2017-05-10T00:41:41.365Z,1008.97
2017-05-10T00:42:22.209Z,1008.98
2017-05-10T00:43:03.077Z,1009
2017-05-10T00:43:43.960Z,1008.98
2017-05-10T00:44:24.846Z,1008.96
2017-05-10T00:45:05.749Z,1008.97
2017-05-10T00:45:46.606Z,1008.93
2017-05-10T00:46:27.492Z,1008.93
2017-05-10T00:47:08.386Z,1008.9
2017-05-10T00:47:49.266Z,1008.88
2017-05-10T00:48:30.143Z,1008.86
2017-05-10T00:49:11.020Z,1008.85
2017-05-10T00:49:51.906Z,1008.85
2017-05-10T00:50:32.814Z,1008.81
2017-05-10T00:51:13.690Z,1008.82
2017-05-10T00:51:54.568Z,1008.79
2017-05-10T00:52:35.457Z,1008.78
2017-05-10T00:53:16.339Z,1008.77
2017-05-10T00:53:57.227Z,1008.76
2017-05-10T00:54:38.106Z,1008.77
2017-05-10T00:55:18.982Z,1008.77
2017-05-10T00:55:59.886Z,1008.79
2017-05-10T00:56:40.772Z,1008.74
2017-05-10T00:57:21.663Z,1008.71
2017-05-10T00:58:02.560Z,1008.71
2017-05-10T00:58:43.415Z,1008.75
2017-05-10T00:59:24.307Z,1008.74
2017-05-10T01:00:05.206Z,1008.77
2017-05-10T01:00:46.095Z,1008.73
2017-05-10T01:01:26.959Z,1008.76
2017-05-10T01:02:07.833Z,1008.77
2017-05-10T01:02:48.726Z,1008.74
2017-05-10T01:03:29.617Z,1008.77
2017-05-10T01:04:10.483Z,1008.76
2017-05-10T01:04:51.356Z,1008.72
2017-05-10T01:05:32.228Z,1008.74
2017-05-10T01:06:13.122Z,1008.7
2017-05-10T01:06:54.015Z,1008.71
2017-05-10T01:07:34.896Z,1008.69
2017-05-10T01:08:15.761Z,1008.7
2017-05-10T01:08:56.625Z,1008.68
2017-05-10T01:09:37.521Z,1008.63
2017-05-10T01:10:18.412Z,1008.65
2017-05-10T01:10:59.283Z,1008.63
2017-05-10T01:11:40.155Z,1008.68
2017-05-10T01:12:21.054Z,1008.63
2017-05-10T01:13:01.942Z,1008.64
2017-05-10T01:13:42.812Z,1008.63
2017-05-10T01:14:23.675Z,1008.67
2017-05-10T01:15:04.549Z,1008.68
2017-05-10T01:15:45.426Z,1008.64
2017-05-10T01:16:26.311Z,1008.62
2017-05-10T01:17:07.191Z,1008.64
2017-05-10T01:17:48.066Z,1008.62
2017-05-10T01:18:28.939Z,1008.59
2017-05-10T01:19:09.837Z,1008.58
2017-05-10T01:19:50.711Z,1008.58
2017-05-10T01:20:31.589Z,1008.52
2017-05-10T01:21:12.465Z,1008.51
2017-05-10T01:21:53.332Z,1008.51
2017-05-10T01:22:34.220Z,1008.49
2017-05-10T01:23:15.118Z,1008.47
2017-05-10T01:23:55.972Z,1008.43
2017-05-10T01:24:36.849Z,1008.45
2017-05-10T01:25:17.722Z,1008.45
2017-05-10T01:25:58.602Z,1008.42
2017-05-10T01:26:39.493Z,1008.45
2017-05-10T01:27:20.371Z,1008.41
2017-05-10T01:28:01.253Z,1008.48
2017-05-10T01:28:42.149Z,1008.45
2017-05-10T01:29:23.046Z,1008.42
2017-05-10T01:30:03.912Z,1008.37
2017-05-10T01:30:44.789Z,1008.38
2017-05-10T01:31:25.695Z,1008.37
2017-05-10T01:32:06.574Z,1008.36
2017-05-10T01:32:47.452Z,1008.33
2017-05-10T01:33:28.311Z,1008.3
2017-05-10T01:34:09.181Z,1008.31
2017-05-10T01:34:50.057Z,1008.33
2017-05-10T01:35:30.948Z,1008.34
2017-05-10T01:36:11.826Z,1008.3
2017-05-10T01:36:52.687Z,1008.3
2017-05-10T01:37:33.566Z,1008.31
2017-05-10T01:38:14.452Z,1008.3
2017-05-10T01:38:55.336Z,1008.35
2017-05-10T01:39:36.235Z,1008.31
2017-05-10T01:40:17.141Z,1008.34
2017-05-10T01:40:58.026Z,1008.28
2017-05-10T01:41:38.904Z,1008.31
2017-05-10T01:42:19.788Z,1008.31
2017-05-10T01:43:00.676Z,1008.3
2017-05-10T01:43:41.563Z,1008.33
2017-05-10T01:44:22.448Z,1008.34
2017-05-10T01:45:03.349Z,1008.31
2017-05-10T01:45:44.241Z,1008.33
2017-05-10T01:46:25.131Z,1008.29
2017-05-10T01:47:06.018Z,1008.27
2017-05-10T01:47:46.910Z,1008.3
2017-05-10T01:48:27.798Z,1008.32
2017-05-10T01:49:08.682Z,1008.3
2017-05-10T01:49:49.576Z,1008.3
2017-05-10T01:50:30.471Z,1008.28
2017-05-10T01:51:11.357Z,1008.26
2017-05-10T01:51:52.268Z,1008.25
2017-05-10T01:52:33.151Z,1008.21
2017-05-10T01:53:14.054Z,1008.2
2017-05-10T01:53:54.945Z,1008.2
2017-05-10T01:54:35.837Z,1008.26
2017-05-10T01:55:16.720Z,1008.25
2017-05-10T01:55:57.612Z,1008.23
2017-05-10T01:56:38.495Z,1008.29
2017-05-10T01:57:19.389Z,1008.26
2017-05-10T01:58:00.294Z,1008.22
2017-05-10T01:58:41.151Z,1008.23
2017-05-10T01:59:22.054Z,1008.23
2017-05-10T02:00:02.906Z,1008.24
2017-05-10T02:00:43.788Z,1008.16
2017-05-10T02:01:24.707Z,1008.13
2017-05-10T02:02:05.588Z,1008.16
2017-05-10T02:02:46.487Z,1008.11
2017-05-10T02:03:27.375Z,1008.15
2017-05-10T02:04:08.249Z,1008.09
2017-05-10T02:04:49.120Z,1008.13
2017-05-10T02:05:30.081Z,1008.14
2017-05-10T02:06:10.961Z,1008.12
2017-05-10T02:06:51.847Z,1008.11
2017-05-10T02:07:32.726Z,1008.12
2017-05-10T02:08:13.600Z,1008.11
2017-05-10T02:08:54.495Z,1008.1
2017-05-10T02:09:35.387Z,1008.1
2017-05-10T02:10:16.266Z,1008.08
2017-05-10T02:10:57.148Z,1008.06
2017-05-10T02:11:38.063Z,1008.07
2017-05-10T02:12:18.940Z,1008.11
2017-05-10T02:12:59.813Z,1008.11
2017-05-10T02:13:40.689Z,1008.11
2017-05-10T02:14:21.577Z,1008.08
2017-05-10T02:15:02.468Z,1008.08
2017-05-10T02:15:43.398Z,1008.08
2017-05-10T02:16:24.232Z,1008.14
2017-05-10T02:17:05.123Z,1008.08
2017-05-10T02:17:46.006Z,1008.08
2017-05-10T02:18:26.899Z,1008.08
2017-05-10T02:19:07.787Z,1008.08
2017-05-10T02:19:48.670Z,1008.09
2017-05-10T02:20:29.547Z,1008.08
2017-05-10T02:21:10.418Z,1008.1
2017-05-10T02:21:51.312Z,1008.13
2017-05-10T02:22:32.195Z,1008.15
2017-05-10T02:23:13.069Z,1008.14
2017-05-10T02:23:53.963Z,1008.1
2017-05-10T02:24:34.841Z,1008.1
2017-05-10T02:25:15.728Z,1008.1
2017-05-10T02:25:56.602Z,1008.12
2017-05-10T02:26:37.484Z,1008.11
2017-05-10T02:27:18.363Z,1008.16
2017-05-10T02:27:59.247Z,1008.14
2017-05-10T02:28:40.140Z,1008.14
2017-05-10T02:29:21.070Z,1008.11
2017-05-10T02:30:01.955Z,1008.12
2017-05-10T02:30:42.828Z,1008.11
2017-05-10T02:31:23.713Z,1008.12
2017-05-10T02:32:04.598Z,1008.09
2017-05-10T02:32:45.491Z,1008.05
2017-05-10T02:33:26.371Z,1008
2017-05-10T02:34:07.261Z,1008.01
2017-05-10T02:34:48.150Z,1008.01
2017-05-10T02:35:29.045Z,1008.01
2017-05-10T02:36:09.932Z,1008.03
2017-05-10T02:36:50.830Z,1008.05
2017-05-10T02:37:31.699Z,1008.07
2017-05-10T02:38:12.569Z,1008.03
2017-05-10T02:38:53.450Z,1008.03
2017-05-10T02:39:34.343Z,1008.01
2017-05-10T02:40:15.252Z,1008.05
2017-05-10T02:40:56.096Z,1008.01
2017-05-10T02:41:36.984Z,1008.02
2017-05-10T02:42:17.880Z,1008.02
2017-05-10T02:42:58.758Z,1007.98
2017-05-10T02:43:39.628Z,1008.06
2017-05-10T02:44:20.503Z,1008.04
2017-05-10T02:45:01.412Z,1008.04
2017-05-10T02:45:42.268Z,1008.06
2017-05-10T02:46:23.166Z,1008.06
2017-05-10T02:47:04.021Z,1008.02
2017-05-10T02:47:44.906Z,1008.04
2017-05-10T02:48:25.802Z,1008.01
2017-05-10T02:49:06.701Z,1008.01
2017-05-10T02:49:47.569Z,1008.01
2017-05-10T02:50:28.465Z,1007.97
2017-05-10T02:51:09.344Z,1008.01
2017-05-10T02:51:50.227Z,1007.94
2017-05-10T02:52:31.144Z,1007.95
2017-05-10T02:53:12.022Z,1007.94
2017-05-10T02:53:52.915Z,1007.93
2017-05-10T02:54:33.789Z,1007.91
2017-05-10T02:55:14.687Z,1007.9
2017-05-10T02:55:55.581Z,1007.89
2017-05-10T02:56:36.490Z,1007.89
2017-05-10T02:57:17.393Z,1007.87
2017-05-10T02:57:58.270Z,1007.89
2017-05-10T02:58:39.150Z,1007.85
2017-05-10T02:59:20.037Z,1007.87
2017-05-10T03:00:00.928Z,1007.87
2017-05-10T03:00:41.791Z,1007.84
2017-05-10T03:01:22.682Z,1007.83
2017-05-10T03:02:03.582Z,1007.86
2017-05-10T03:02:44.461Z,1007.84
2017-05-10T03:03:25.339Z,1007.84
2017-05-10T03:04:06.221Z,1007.82
2017-05-10T03:04:47.109Z,1007.82
2017-05-10T03:05:27.993Z,1007.83
2017-05-10T03:06:08.869Z,1007.85
2017-05-10T03:06:49.753Z,1007.87
2017-05-10T03:07:30.639Z,1007.82
2017-05-10T03:08:11.626Z,1007.81
2017-05-10T03:08:52.529Z,1007.81
2017-05-10T03:09:33.400Z,1007.8
2017-05-10T03:10:14.308Z,1007.81
2017-05-10T03:10:55.186Z,1007.8
2017-05-10T03:11:36.076Z,1007.75
2017-05-10T03:12:16.968Z,1007.75
2017-05-10T03:12:57.833Z,1007.75
2017-05-10T03:13:38.722Z,1007.73
2017-05-10T03:14:19.609Z,1007.72
2017-05-10T03:15:00.493Z,1007.7
2017-05-10T03:15:41.373Z,1007.67
2017-05-10T03:16:22.252Z,1007.7
2017-05-10T03:17:03.140Z,1007.68
2017-05-10T03:17:44.035Z,1007.66
2017-05-10T03:18:24.911Z,1007.71
2017-05-10T03:19:05.805Z,1007.7
2017-05-10T03:19:46.698Z,1007.66
2017-05-10T03:20:27.579Z,1007.75
2017-05-10T03:21:08.459Z,1007.69
2017-05-10T03:21:49.352Z,1007.7
2017-05-10T03:22:30.225Z,1007.66
2017-05-10T03:23:11.099Z,1007.7
2017-05-10T03:23:51.971Z,1007.62
2017-05-10T03:24:32.858Z,1007.66
2017-05-10T03:25:13.755Z,1007.64
2017-05-10T03:25:54.635Z,1007.61
2017-05-10T03:26:35.519Z,1007.6
2017-05-10T03:27:16.385Z,1007.6
2017-05-10T03:27:57.278Z,1007.52
2017-05-10T03:28:38.166Z,1007.55
2017-05-10T03:29:19.050Z,1007.52
2017-05-10T03:29:59.939Z,1007.53
2017-05-10T03:30:40.831Z,1007.53
2017-05-10T03:31:21.712Z,1007.53
2017-05-10T03:32:02.608Z,1007.54
2017-05-10T03:32:43.479Z,1007.53
2017-05-10T03:33:24.369Z,1007.58
2017-05-10T03:34:05.251Z,1007.49
2017-05-10T03:34:46.134Z,1007.5
2017-05-10T03:35:27.020Z,1007.47
2017-05-10T03:36:07.908Z,1007.5
2017-05-10T03:36:48.799Z,1007.49
2017-05-10T03:37:29.664Z,1007.49
2017-05-10T03:38:10.585Z,1007.43
2017-05-10T03:38:51.558Z,1007.43
2017-05-10T03:39:32.432Z,1007.45
2017-05-10T03:40:13.299Z,1007.46
2017-05-10T03:40:54.184Z,1007.42
2017-05-10T03:41:35.073Z,1007.42
2017-05-10T03:42:15.951Z,1007.44
2017-05-10T03:42:56.823Z,1007.43
2017-05-10T03:43:37.698Z,1007.44
2017-05-10T03:44:18.573Z,1007.42
2017-05-10T03:44:59.449Z,1007.45
2017-05-10T03:45:40.327Z,1007.41
2017-05-10T03:46:21.210Z,1007.46
2017-05-10T03:47:02.092Z,1007.44
2017-05-10T03:47:42.968Z,1007.45
2017-05-10T03:48:23.847Z,1007.42
2017-05-10T03:49:04.736Z,1007.42
2017-05-10T03:49:45.623Z,1007.39
2017-05-10T03:50:26.551Z,1007.46
2017-05-10T03:51:07.408Z,1007.45
2017-05-10T03:51:48.298Z,1007.43
2017-05-10T03:52:29.192Z,1007.44
2017-05-10T03:53:10.080Z,1007.43
2017-05-10T03:53:50.945Z,1007.46
2017-05-10T03:54:31.822Z,1007.46
2017-05-10T03:55:12.728Z,1007.45
2017-05-10T03:55:53.621Z,1007.45
2017-05-10T03:56:34.491Z,1007.43
2017-05-10T03:57:15.362Z,1007.42
2017-05-10T03:57:56.259Z,1007.46
2017-05-10T03:58:37.137Z,1007.5
2017-05-10T03:59:18.015Z,1007.48
2017-05-10T03:59:58.892Z,1007.47
2017-05-10T04:00:39.775Z,1007.52
2017-05-10T04:01:20.665Z,1007.52
2017-05-10T04:02:01.519Z,1007.54
2017-05-10T04:02:42.392Z,1007.53
2017-05-10T04:03:23.275Z,1007.52
2017-05-10T04:04:04.169Z,1007.57
2017-05-10T04:04:45.056Z,1007.53
2017-05-10T04:05:25.930Z,1007.55
2017-05-10T04:06:06.821Z,1007.55
2017-05-10T04:06:47.716Z,1007.53
2017-05-10T04:07:28.606Z,1007.54
2017-05-10T04:08:09.487Z,1007.51
2017-05-10T04:08:50.373Z,1007.49
2017-05-10T04:09:31.257Z,1007.48
2017-05-10T04:10:12.140Z,1007.52
2017-05-10T04:10:53.015Z,1007.47
2017-05-10T04:11:33.895Z,1007.5
2017-05-10T04:12:14.795Z,1007.48
2017-05-10T04:12:55.673Z,1007.52
2017-05-10T04:13:36.557Z,1007.43
2017-05-10T04:14:17.455Z,1007.48
2017-05-10T04:14:58.345Z,1007.53
2017-05-10T04:15:39.237Z,1007.48
2017-05-10T04:16:20.128Z,1007.49
2017-05-10T04:17:01.013Z,1007.47
2017-05-10T04:17:41.882Z,1007.45
2017-05-10T04:18:22.758Z,1007.44
2017-05-10T04:19:03.638Z,1007.47
2017-05-10T04:19:44.529Z,1007.45
2017-05-10T04:20:25.410Z,1007.46
2017-05-10T04:21:06.280Z,1007.44
2017-05-10T04:21:47.162Z,1007.48
2017-05-10T04:22:28.057Z,1007.44
2017-05-10T04:23:08.948Z,1007.5
2017-05-10T04:23:49.834Z,1007.47
2017-05-10T04:24:30.734Z,1007.43
2017-05-10T04:25:11.617Z,1007.44
2017-05-10T04:25:52.506Z,1007.43
2017-05-10T04:26:33.392Z,1007.44
2017-05-10T04:27:14.309Z,1007.43
2017-05-10T04:27:55.189Z,1007.39
2017-05-10T04:28:36.078Z,1007.4
2017-05-10T04:29:16.973Z,1007.4
2017-05-10T04:29:57.853Z,1007.38
2017-05-10T04:30:38.738Z,1007.39
2017-05-10T04:31:19.628Z,1007.43
2017-05-10T04:32:00.510Z,1007.41
2017-05-10T04:32:41.395Z,1007.36
2017-05-10T04:33:22.289Z,1007.33
2017-05-10T04:34:03.181Z,1007.35
2017-05-10T04:34:44.050Z,1007.35
2017-05-10T04:35:24.931Z,1007.31
2017-05-10T04:36:05.858Z,1007.35
2017-05-10T04:36:46.698Z,1007.33
2017-05-10T04:37:27.583Z,1007.31
2017-05-10T04:38:08.466Z,1007.31
2017-05-10T04:38:49.359Z,1007.37
2017-05-10T04:39:30.235Z,1007.34
2017-05-10T04:40:11.112Z,1007.32
2017-05-10T04:40:52.002Z,1007.33
2017-05-10T04:41:32.896Z,1007.33
2017-05-10T04:42:13.781Z,1007.32
2017-05-10T04:42:54.645Z,1007.33
2017-05-10T04:43:35.525Z,1007.34
2017-05-10T04:44:16.425Z,1007.34
2017-05-10T04:44:57.297Z,1007.37
2017-05-10T04:45:38.173Z,1007.34
2017-05-10T04:46:19.052Z,1007.34
2017-05-10T04:46:59.969Z,1007.31
2017-05-10T04:47:40.852Z,1007.31
2017-05-10T04:48:21.724Z,1007.29
2017-05-10T04:49:02.617Z,1007.32
2017-05-10T04:49:43.490Z,1007.36
2017-05-10T04:50:24.409Z,1007.28
2017-05-10T04:51:05.294Z,1007.32
2017-05-10T04:51:46.184Z,1007.33
2017-05-10T04:52:27.060Z,1007.37
2017-05-10T04:53:07.922Z,1007.36
2017-05-10T04:53:48.793Z,1007.35
2017-05-10T04:54:29.673Z,1007.31
2017-05-10T04:55:10.555Z,1007.34
2017-05-10T04:55:51.444Z,1007.36
2017-05-10T04:56:32.310Z,1007.36
2017-05-10T04:57:13.173Z,1007.37
2017-05-10T04:57:54.057Z,1007.41
2017-05-10T04:58:34.944Z,1007.4
2017-05-10T04:59:15.824Z,1007.4
2017-05-10T04:59:56.711Z,1007.4
2017-05-10T05:00:37.569Z,1007.34
2017-05-10T05:01:18.457Z,1007.32
2017-05-10T05:01:59.339Z,1007.38
2017-05-10T05:02:40.238Z,1007.37
2017-05-10T05:03:21.123Z,1007.38
2017-05-10T05:04:02.014Z,1007.35
2017-05-10T05:04:42.916Z,1007.31
2017-05-10T05:05:23.753Z,1007.36
2017-05-10T05:06:04.642Z,1007.35
2017-05-10T05:06:45.525Z,1007.37
2017-05-10T05:07:26.399Z,1007.37
2017-05-10T05:08:07.277Z,1007.39
2017-05-10T05:08:48.158Z,1007.33
2017-05-10T05:09:29.019Z,1007.3
2017-05-10T05:10:09.912Z,1007.3
2017-05-10T05:10:50.812Z,1007.35
2017-05-10T05:11:31.702Z,1007.31
2017-05-10T05:12:12.555Z,1007.33
2017-05-10T05:12:53.437Z,1007.33
2017-05-10T05:13:34.326Z,1007.35
2017-05-10T05:14:15.230Z,1007.32
2017-05-10T05:14:56.095Z,1007.29
2017-05-10T05:15:37.040Z,1007.26
2017-05-10T05:16:18.013Z,1007.28
2017-05-10T05:16:58.865Z,1007.26
2017-05-10T05:17:39.750Z,1007.31
2017-05-10T05:18:20.626Z,1007.27
2017-05-10T05:19:01.506Z,1007.26
2017-05-10T05:19:42.407Z,1007.24
2017-05-10T05:20:23.307Z,1007.26
2017-05-10T05:21:04.199Z,1007.3
2017-05-10T05:21:45.093Z,1007.28
2017-05-10T05:22:25.937Z,1007.3
2017-05-10T05:23:06.809Z,1007.28
2017-05-10T05:23:47.704Z,1007.27
2017-05-10T05:24:28.583Z,1007.27
2017-05-10T05:25:09.487Z,1007.26
2017-05-10T05:25:50.335Z,1007.24
2017-05-10T05:26:31.211Z,1007.26
2017-05-10T05:27:12.135Z,1007.25
2017-05-10T05:27:53.005Z,1007.25
2017-05-10T05:28:33.896Z,1007.25
2017-05-10T05:29:14.775Z,1007.21
2017-05-10T05:29:55.676Z,1007.2
2017-05-10T05:30:36.537Z,1007.21
2017-05-10T05:31:17.414Z,1007.2
2017-05-10T05:31:58.309Z,1007.16
2017-05-10T05:32:39.178Z,1007.18
2017-05-10T05:33:20.062Z,1007.2
2017-05-10T05:34:00.927Z,1007.21
2017-05-10T05:34:41.798Z,1007.17
2017-05-10T05:35:22.701Z,1007.15
2017-05-10T05:36:03.591Z,1007.16
2017-05-10T05:36:44.472Z,1007.14
2017-05-10T05:37:25.397Z,1007.16
2017-05-10T05:38:06.266Z,1007.13
2017-05-10T05:38:47.150Z,1007.14
2017-05-10T05:39:28.025Z,1007.13
2017-05-10T05:40:09.577Z,1007.14
2017-05-10T05:40:50.452Z,1007.14
2017-05-10T05:41:31.342Z,1007.12
2017-05-10T05:42:12.233Z,1007.09
2017-05-10T05:42:53.091Z,1007.11
2017-05-10T05:43:33.965Z,1007.15
2017-05-10T05:44:14.857Z,1007.1
2017-05-10T05:44:55.742Z,1007.11
2017-05-10T05:45:36.623Z,1007.11
2017-05-10T05:46:17.503Z,1007.12
2017-05-10T05:46:58.370Z,1007.08
2017-05-10T05:47:39.371Z,1007.09
2017-05-10T05:49:33.285Z,1007.1
2017-05-10T05:50:14.160Z,1007.1
2017-05-10T05:50:55.056Z,1007.13
2017-05-10T05:51:35.927Z,1007.1
2017-05-10T05:52:16.809Z,1007.12
2017-05-10T05:52:57.673Z,1007.1
2017-05-10T05:53:38.553Z,1007.11
2017-05-10T05:54:19.441Z,1007.1
2017-05-10T05:55:00.346Z,1007.1
2017-05-10T05:55:41.221Z,1007.09
2017-05-10T05:56:22.122Z,1007.11
2017-05-10T05:57:05.620Z,1007.1
2017-05-10T05:57:46.515Z,1007.12
2017-05-10T05:58:27.398Z,1007.1
2017-05-10T05:59:08.285Z,1007.12
2017-05-10T05:59:49.322Z,1007.11
2017-05-10T06:00:30.206Z,1007.1
2017-05-10T06:01:11.173Z,1007.12
2017-05-10T06:03:05.027Z,1007.09
2017-05-10T06:03:46.012Z,1007.08
2017-05-10T06:04:26.945Z,1007.13
2017-05-10T06:05:07.857Z,1007.12
2017-05-10T06:05:48.841Z,1007.09
2017-05-10T06:06:29.741Z,1007.08
2017-05-10T06:08:30.692Z,1007.09
2017-05-10T06:09:11.653Z,1007.04
2017-05-10T06:09:52.558Z,1007.04
2017-05-10T06:11:26.223Z,1007.03
2017-05-10T06:12:07.025Z,1007.06
2017-05-10T06:12:47.967Z,1007.06
2017-05-10T06:13:28.838Z,1007.05
2017-05-10T06:14:09.726Z,1007.07
2017-05-10T06:14:50.638Z,1007.08
2017-05-10T06:15:31.560Z,1007.05
2017-05-10T06:16:12.435Z,1007.01
2017-05-10T06:16:53.300Z,1007.06
2017-05-10T06:17:34.191Z,1007.05
2017-05-10T06:18:15.070Z,1007.04
2017-05-10T06:18:55.991Z,1007.05
2017-05-10T06:19:36.984Z,1007.04
2017-05-10T06:20:17.945Z,1007.06
2017-05-10T06:21:00.724Z,1007.02
2017-05-10T06:21:41.537Z,1007.03
2017-05-10T06:22:22.429Z,1007.06
2017-05-10T06:23:03.306Z,1007.04
2017-05-10T06:23:44.282Z,1007
2017-05-10T06:24:25.190Z,1007.04
2017-05-10T06:25:06.070Z,1007.04
2017-05-10T06:25:46.962Z,1007.05
2017-05-10T06:26:27.852Z,1007.03
2017-05-10T06:27:08.768Z,1007.03
2017-05-10T06:27:49.654Z,1007
2017-05-10T06:29:43.290Z,1007.02
2017-05-10T06:30:24.226Z,1007.05
2017-05-10T06:31:05.051Z,1007.03
2017-05-10T06:31:45.940Z,1007.08
2017-05-10T06:32:26.801Z,1007.09
2017-05-10T06:33:07.683Z,1007.06
2017-05-10T06:33:48.571Z,1007.06
2017-05-10T06:34:29.449Z,1007.1
2017-05-10T06:35:10.322Z,1007.09
2017-05-10T06:35:51.224Z,1007.07
2017-05-10T06:36:32.106Z,1007.09
2017-05-10T06:37:12.982Z,1007.08
2017-05-10T06:37:53.865Z,1007.12
2017-05-10T06:38:34.753Z,1007.04
2017-05-10T06:39:15.654Z,1007.08
2017-05-10T06:39:56.543Z,1007.06
2017-05-10T06:40:37.412Z,1007.07
2017-05-10T06:41:18.307Z,1007.06
2017-05-10T06:41:59.192Z,1007.07
2017-05-10T06:42:40.088Z,1007.08
2017-05-10T06:43:20.965Z,1007.03
2017-05-10T06:44:01.849Z,1007.08
2017-05-10T06:44:42.754Z,1007.07
2017-05-10T06:45:23.629Z,1007.05
2017-05-10T06:46:04.518Z,1007.08
2017-05-10T06:46:45.405Z,1007.11
2017-05-10T06:47:26.388Z,1007.05
2017-05-10T06:48:07.219Z,1007.04
2017-05-10T06:48:48.107Z,1007.02
2017-05-10T06:49:29.008Z,1007.02
2017-05-10T06:50:09.916Z,1007.08
2017-05-10T06:50:50.783Z,1007.07
2017-05-10T06:51:31.662Z,1007.07
2017-05-10T06:52:12.524Z,1007.05
2017-05-10T06:52:53.378Z,1007.03
2017-05-10T06:53:34.270Z,1007.06
2017-05-10T06:54:15.248Z,1007.02
2017-05-10T06:54:56.133Z,1007.06
2017-05-10T06:55:37.095Z,1007.05
2017-05-10T06:56:18.007Z,1007.01
2017-05-10T06:56:58.886Z,1007.09
2017-05-10T06:57:39.762Z,1007.05
2017-05-10T06:58:20.651Z,1007.08
2017-05-10T06:59:01.544Z,1007.01
2017-05-10T06:59:42.433Z,1007.07
2017-05-10T07:00:23.309Z,1007.05
2017-05-10T07:01:04.188Z,1007.02
2017-05-10T07:01:45.079Z,1007.07
2017-05-10T07:02:25.966Z,1007.02
2017-05-10T07:03:06.842Z,1006.98
2017-05-10T07:03:47.725Z,1007.04
2017-05-10T07:04:28.625Z,1006.99
2017-05-10T07:05:09.512Z,1007.02
2017-05-10T07:05:50.383Z,1007.01
2017-05-10T07:06:31.269Z,1007
2017-05-10T07:07:12.137Z,1006.98
2017-05-10T07:07:53.019Z,1006.97
2017-05-10T07:08:33.901Z,1007
2017-05-10T07:09:14.789Z,1007.01
2017-05-10T07:09:55.690Z,1007.04
2017-05-10T07:10:36.596Z,1007.03
2017-05-10T07:11:17.477Z,1007.02
2017-05-10T07:11:58.402Z,1007
2017-05-10T07:12:39.251Z,1007.02
2017-05-10T07:13:20.138Z,1007
2017-05-10T07:14:01.031Z,1006.98
2017-05-10T07:14:41.920Z,1007.02
2017-05-10T07:15:22.801Z,1007.05
2017-05-10T07:16:03.695Z,1006.99
2017-05-10T07:16:44.577Z,1007
2017-05-10T07:17:25.462Z,1007.01
2017-05-10T07:18:06.343Z,1006.98
2017-05-10T07:18:47.242Z,1007
2017-05-10T07:19:28.129Z,1007
2017-05-10T07:20:09.013Z,1007
2017-05-10T07:20:49.892Z,1006.99
2017-05-10T07:21:30.769Z,1006.99
2017-05-10T07:22:11.658Z,1007
2017-05-10T07:22:52.525Z,1006.96
2017-05-10T07:23:33.408Z,1006.99
2017-05-10T07:24:14.301Z,1006.98
2017-05-10T07:24:55.184Z,1006.99
2017-05-10T07:25:36.068Z,1006.99
2017-05-10T07:26:16.959Z,1007.02
2017-05-10T07:26:57.842Z,1006.97
2017-05-10T07:27:38.724Z,1007
2017-05-10T07:28:19.615Z,1006.99
2017-05-10T07:29:00.515Z,1006.96
2017-05-10T07:29:41.402Z,1006.97
2017-05-10T07:30:22.317Z,1007.01
2017-05-10T07:31:03.203Z,1007
2017-05-10T07:31:44.087Z,1007.02
2017-05-10T07:32:24.966Z,1006.96
2017-05-10T07:33:05.862Z,1006.96
2017-05-10T07:33:46.757Z,1006.97
2017-05-10T07:34:27.643Z,1006.96
2017-05-10T07:35:08.527Z,1006.95
2017-05-10T07:35:49.414Z,1006.91
2017-05-10T07:36:30.300Z,1006.93
2017-05-10T07:37:11.181Z,1006.94
2017-05-10T07:37:52.075Z,1006.93
2017-05-10T07:38:32.981Z,1006.92
2017-05-10T07:39:13.864Z,1006.91
2017-05-10T07:39:54.746Z,1006.87
2017-05-10T07:40:35.640Z,1006.93
2017-05-10T07:41:16.506Z,1006.91
2017-05-10T07:41:57.395Z,1006.9
2017-05-10T07:42:38.293Z,1006.9
2017-05-10T07:43:19.178Z,1006.88
2017-05-10T07:44:00.071Z,1006.9
2017-05-10T07:44:40.967Z,1006.89
2017-05-10T07:45:21.929Z,1006.93
2017-05-10T07:46:02.777Z,1006.93
2017-05-10T07:46:43.661Z,1006.91
2017-05-10T07:47:24.550Z,1006.9
2017-05-10T07:48:05.457Z,1006.91
2017-05-10T07:48:46.340Z,1006.89
2017-05-10T07:49:27.226Z,1006.89
2017-05-10T07:50:08.098Z,1006.89
2017-05-10T07:50:48.997Z,1006.92
2017-05-10T07:51:29.879Z,1006.88
2017-05-10T07:52:10.767Z,1006.96
2017-05-10T07:52:51.657Z,1006.93
2017-05-10T07:53:32.553Z,1006.92
2017-05-10T07:54:13.459Z,1006.93
2017-05-10T07:54:54.349Z,1006.95
2017-05-10T07:55:35.233Z,1006.9
2017-05-10T07:56:16.121Z,1006.87
2017-05-10T07:56:57.016Z,1006.88
2017-05-10T07:57:37.914Z,1006.92
2017-05-10T07:58:18.810Z,1006.92
2017-05-10T07:58:59.695Z,1006.93
2017-05-10T07:59:40.591Z,1006.94
2017-05-10T08:00:21.517Z,1006.85
2017-05-10T08:01:02.391Z,1006.98
2017-05-10T08:01:43.272Z,1006.95
2017-05-10T08:02:24.164Z,1006.93
2017-05-10T08:03:05.068Z,1006.96
2017-05-10T08:03:45.958Z,1006.94
2017-05-10T08:04:26.890Z,1006.94
2017-05-10T08:05:07.786Z,1006.92
2017-05-10T08:05:48.679Z,1006.92
2017-05-10T08:06:29.583Z,1006.9
2017-05-10T08:07:10.439Z,1006.89
2017-05-10T08:07:51.320Z,1006.91
2017-05-10T08:08:32.209Z,1006.9
2017-05-10T08:09:13.096Z,1006.88
2017-05-10T08:09:53.983Z,1006.85
2017-05-10T08:10:34.884Z,1006.88
2017-05-10T08:11:15.768Z,1006.81
2017-05-10T08:11:56.656Z,1006.84
2017-05-10T08:12:37.552Z,1006.81
2017-05-10T08:13:18.450Z,1006.81
2017-05-10T08:13:59.324Z,1006.78
2017-05-10T08:14:40.211Z,1006.8
2017-05-10T08:15:21.103Z,1006.79
2017-05-10T08:16:01.987Z,1006.78
2017-05-10T08:16:42.879Z,1006.78
2017-05-10T08:17:23.771Z,1006.78
2017-05-10T08:18:04.653Z,1006.78
2017-05-10T08:18:45.534Z,1006.76
2017-05-10T08:19:26.442Z,1006.75
2017-05-10T08:20:07.328Z,1006.7
2017-05-10T08:20:48.209Z,1006.74
2017-05-10T08:21:29.101Z,1006.74
2017-05-10T08:22:09.995Z,1006.75
2017-05-10T08:22:50.884Z,1006.76